createdAt,value
2018-07-05T00:00:52.169Z,0
2018-07-05T00:01:52.850Z,0
2018-07-05T00:02:53.534Z,0
2018-07-05T00:03:54.215Z,0
2018-07-05T00:04:54.945Z,0
2018-07-05T00:05:55.629Z,0
2018-07-05T00:06:56.310Z,0
2018-07-05T00:07:57.041Z,0
2018-07-05T00:08:57.724Z,0
2018-07-05T00:09:58.455Z,0
2018-07-05T00:10:59.138Z,0
2018-07-05T00:11:59.872Z,0
2018-07-05T00:13:00.551Z,0
2018-07-05T00:14:01.237Z,0
2018-07-05T00:15:01.965Z,0
2018-07-05T00:16:02.745Z,0
2018-07-05T00:17:03.427Z,0
2018-07-05T00:18:04.112Z,0
2018-07-05T00:19:04.838Z,0
2018-07-05T00:20:05.523Z,0
2018-07-05T00:21:06.251Z,0
2018-07-05T00:22:06.937Z,0
2018-07-05T00:23:07.614Z,0
2018-07-05T00:24:08.293Z,0
2018-07-05T00:25:09.026Z,0
2018-07-05T00:26:09.707Z,0
2018-07-05T00:27:10.388Z,0
2018-07-05T00:28:11.071Z,0
2018-07-05T00:29:11.804Z,0
2018-07-05T00:30:12.531Z,0
2018-07-05T00:31:13.214Z,0
2018-07-05T00:32:13.894Z,0
2018-07-05T00:33:14.576Z,0
2018-07-05T00:34:15.307Z,0
2018-07-05T00:35:15.987Z,0
2018-07-05T00:36:16.670Z,0
2018-07-05T00:37:17.449Z,0
2018-07-05T00:38:18.131Z,0
2018-07-05T00:39:18.863Z,0
2018-07-05T00:40:19.543Z,0
2018-07-05T00:41:20.225Z,0
2018-07-05T00:42:20.908Z,0
2018-07-05T00:43:21.589Z,0
2018-07-05T00:44:22.273Z,0
2018-07-05T00:45:22.952Z,0
2018-07-05T00:46:23.683Z,0
2018-07-05T00:47:24.363Z,0
2018-07-05T00:48:25.045Z,0
2018-07-05T00:49:25.726Z,0
2018-07-05T00:50:26.459Z,0
2018-07-05T00:51:27.139Z,0
2018-07-05T00:52:27.869Z,0
2018-07-05T00:53:28.549Z,0
2018-07-05T00:54:29.230Z,0
2018-07-05T00:55:29.960Z,0
2018-07-05T00:56:30.639Z,0
2018-07-05T00:57:31.321Z,0
2018-07-05T00:58:32.001Z,0
2018-07-05T00:59:32.729Z,0
2018-07-05T01:00:33.460Z,0
2018-07-05T01:01:34.147Z,0
2018-07-05T01:02:34.825Z,0
2018-07-05T01:03:35.556Z,0
2018-07-05T01:04:36.293Z,0
2018-07-05T01:05:36.968Z,0
2018-07-05T01:06:37.650Z,0
2018-07-05T01:07:38.330Z,0
2018-07-05T01:08:39.013Z,0
2018-07-05T01:09:39.742Z,0
2018-07-05T01:10:40.424Z,0
2018-07-05T01:11:41.152Z,0
2018-07-05T01:12:41.897Z,0
2018-07-05T01:13:42.516Z,0
2018-07-05T01:14:43.197Z,0
2018-07-05T01:15:43.879Z,0
2018-07-05T01:16:44.610Z,0
2018-07-05T01:17:45.288Z,0
2018-07-05T01:18:45.969Z,0
2018-07-05T01:19:46.650Z,0
2018-07-05T01:20:47.332Z,0
2018-07-05T01:21:48.060Z,0
2018-07-05T01:22:48.790Z,0
2018-07-05T01:23:49.470Z,0
2018-07-05T01:24:50.152Z,0
2018-07-05T01:25:50.835Z,0
2018-07-05T01:26:51.564Z,0
2018-07-05T01:27:52.244Z,0
2018-07-05T01:28:52.925Z,0
2018-07-05T01:29:53.655Z,0
2018-07-05T01:30:54.385Z,0
2018-07-05T01:31:55.119Z,0
2018-07-05T01:32:55.798Z,0
2018-07-05T01:33:56.478Z,0
2018-07-05T01:34:57.158Z,0
2018-07-05T01:35:57.841Z,0
2018-07-05T01:36:58.572Z,0
2018-07-05T01:37:59.252Z,0
2018-07-05T01:38:59.984Z,0
2018-07-05T01:40:00.664Z,0
2018-07-05T01:41:01.348Z,0
2018-07-05T01:42:02.028Z,0
2018-07-05T01:43:02.758Z,0
2018-07-05T01:44:03.447Z,0
2018-07-05T01:45:04.123Z,0
2018-07-05T01:46:04.854Z,0
2018-07-05T01:47:05.581Z,0
2018-07-05T01:48:06.262Z,0
2018-07-05T01:49:06.995Z,0
2018-07-05T01:50:07.676Z,0
2018-07-05T01:51:08.354Z,0
2018-07-05T01:52:09.036Z,0
2018-07-05T01:53:09.718Z,0
2018-07-05T01:54:10.447Z,0
2018-07-05T01:55:11.128Z,0
2018-07-05T01:56:11.808Z,0
2018-07-05T01:57:12.488Z,0
2018-07-05T01:58:13.169Z,0
2018-07-05T01:59:13.899Z,0
2018-07-05T02:00:14.578Z,0
2018-07-05T02:01:15.258Z,0
2018-07-05T02:02:15.989Z,0
2018-07-05T02:03:16.666Z,0
2018-07-05T02:04:17.397Z,0
2018-07-05T02:05:18.077Z,0
2018-07-05T02:06:18.757Z,0
2018-07-05T02:07:19.440Z,0
2018-07-05T02:08:20.120Z,0
2018-07-05T02:09:20.849Z,0
2018-07-05T02:10:21.532Z,0
2018-07-05T02:11:22.214Z,0
2018-07-05T02:12:22.893Z,0
2018-07-05T02:13:23.576Z,0
2018-07-05T02:14:24.299Z,0
2018-07-05T02:15:24.936Z,0
2018-07-05T02:16:25.666Z,0
2018-07-05T02:17:26.347Z,0
2018-07-05T02:18:27.026Z,0
2018-07-05T02:19:27.759Z,0
2018-07-05T02:20:28.440Z,0
2018-07-05T02:21:29.120Z,0
2018-07-05T02:22:29.851Z,0
2018-07-05T02:23:30.524Z,0
2018-07-05T02:24:31.205Z,0
2018-07-05T02:25:31.885Z,0
2018-07-05T02:26:32.617Z,0
2018-07-05T02:27:33.296Z,4
2018-07-05T02:28:33.978Z,4
2018-07-05T02:29:34.709Z,0
2018-07-05T02:30:35.390Z,0
2018-07-05T02:31:36.071Z,4
2018-07-05T02:32:36.752Z,4
2018-07-05T02:33:37.484Z,4
2018-07-05T02:34:38.161Z,4
2018-07-05T02:35:38.841Z,4
2018-07-05T02:36:39.575Z,4
2018-07-05T02:37:40.250Z,4
2018-07-05T02:38:40.931Z,8
2018-07-05T02:39:41.610Z,8
2018-07-05T02:40:42.344Z,8
2018-07-05T02:41:43.023Z,8
2018-07-05T02:42:43.703Z,8
2018-07-05T02:43:44.480Z,12
2018-07-05T02:44:45.212Z,16
2018-07-05T02:45:45.899Z,16
2018-07-05T02:46:46.624Z,20
2018-07-05T02:47:47.304Z,16
2018-07-05T02:48:47.987Z,20
2018-07-05T02:49:48.718Z,24
2018-07-05T02:50:49.399Z,28
2018-07-05T02:51:50.082Z,28
2018-07-05T02:52:50.809Z,32
2018-07-05T02:53:51.491Z,36
2018-07-05T02:54:52.272Z,40
2018-07-05T02:55:52.952Z,44
2018-07-05T02:56:53.635Z,48
2018-07-05T02:57:54.314Z,52
2018-07-05T02:58:55.045Z,60
2018-07-05T02:59:55.726Z,64
2018-07-05T03:00:56.409Z,68
2018-07-05T03:01:57.140Z,76
2018-07-05T03:02:57.821Z,84
2018-07-05T03:03:58.505Z,88
2018-07-05T03:04:59.186Z,100
2018-07-05T03:05:59.926Z,104
2018-07-05T03:07:00.651Z,112
2018-07-05T03:08:01.333Z,120
2018-07-05T03:09:02.018Z,128
2018-07-05T03:10:02.745Z,140
2018-07-05T03:11:03.429Z,148
2018-07-05T03:12:04.162Z,160
2018-07-05T03:13:04.848Z,172
2018-07-05T03:14:05.526Z,180
2018-07-05T03:15:06.256Z,188
2018-07-05T03:16:06.943Z,204
2018-07-05T03:17:07.671Z,216
2018-07-05T03:18:08.355Z,228
2018-07-05T03:19:09.089Z,240
2018-07-05T03:20:09.772Z,256
2018-07-05T03:21:10.453Z,268
2018-07-05T03:22:11.134Z,284
2018-07-05T03:23:11.868Z,300
2018-07-05T03:24:12.599Z,316
2018-07-05T03:25:13.283Z,336
2018-07-05T03:26:13.967Z,352
2018-07-05T03:27:14.700Z,368
2018-07-05T03:28:15.382Z,392
2018-07-05T03:29:16.116Z,416
2018-07-05T03:30:16.798Z,440
2018-07-05T03:31:17.481Z,460
2018-07-05T03:32:18.216Z,488
2018-07-05T03:33:18.900Z,508
2018-07-05T03:34:19.585Z,532
2018-07-05T03:35:20.267Z,552
2018-07-05T03:36:20.950Z,580
2018-07-05T03:37:21.635Z,600
2018-07-05T03:38:22.318Z,624
2018-07-05T03:39:23.052Z,652
2018-07-05T03:40:23.735Z,684
2018-07-05T03:41:24.417Z,708
2018-07-05T03:42:25.101Z,740
2018-07-05T03:43:25.833Z,768
2018-07-05T03:44:26.566Z,800
2018-07-05T03:45:27.250Z,828
2018-07-05T03:46:27.934Z,864
2018-07-05T03:47:28.617Z,896
2018-07-05T03:48:29.300Z,932
2018-07-05T03:49:30.033Z,968
2018-07-05T03:50:30.717Z,1004
2018-07-05T03:51:31.413Z,1032
2018-07-05T03:52:32.088Z,1064
2018-07-05T03:53:32.822Z,1092
2018-07-05T03:54:33.506Z,1116
2018-07-05T03:55:34.190Z,1148
2018-07-05T03:56:34.925Z,1176
2018-07-05T03:57:35.608Z,1220
2018-07-05T03:58:36.293Z,1260
2018-07-05T03:59:36.982Z,1296
2018-07-05T04:00:37.665Z,1328
2018-07-05T04:01:38.399Z,1360
2018-07-05T04:02:39.147Z,1388
2018-07-05T04:03:39.817Z,1424
2018-07-05T04:04:40.554Z,1460
2018-07-05T04:05:41.288Z,1496
2018-07-05T04:06:42.021Z,1532
2018-07-05T04:07:42.705Z,1572
2018-07-05T04:08:43.391Z,1608
2018-07-05T04:09:44.076Z,1636
2018-07-05T04:10:44.809Z,1660
2018-07-05T04:11:45.494Z,1684
2018-07-05T04:12:46.178Z,1708
2018-07-05T04:13:46.862Z,1728
2018-07-05T04:14:47.546Z,1752
2018-07-05T04:15:48.291Z,1768
2018-07-05T04:16:49.007Z,1788
2018-07-05T04:17:49.743Z,1812
2018-07-05T04:18:50.429Z,1844
2018-07-05T04:19:51.113Z,1880
2018-07-05T04:20:51.797Z,1908
2018-07-05T04:21:52.483Z,1944
2018-07-05T04:22:53.165Z,1972
2018-07-05T04:23:53.850Z,2000
2018-07-05T04:24:54.585Z,2024
2018-07-05T04:25:55.269Z,2040
2018-07-05T04:26:55.954Z,2060
2018-07-05T04:27:56.642Z,2092
2018-07-05T04:28:57.371Z,2120
2018-07-05T04:29:58.105Z,2164
2018-07-05T04:30:58.792Z,2208
2018-07-05T04:31:59.473Z,2248
2018-07-05T04:33:00.161Z,2280
2018-07-05T04:34:00.869Z,2308
2018-07-05T04:35:01.578Z,2328
2018-07-05T04:36:02.264Z,2352
2018-07-05T04:37:02.951Z,2380
2018-07-05T04:38:03.682Z,2408
2018-07-05T04:39:04.466Z,2440
2018-07-05T04:40:05.152Z,2460
2018-07-05T04:41:05.837Z,2476
2018-07-05T04:42:06.521Z,2488
2018-07-05T04:43:07.207Z,2496
2018-07-05T04:44:07.940Z,2512
2018-07-05T04:45:08.625Z,2528
2018-07-05T04:46:09.310Z,2552
2018-07-05T04:47:10.047Z,2580
2018-07-05T04:48:10.729Z,2604
2018-07-05T04:49:11.414Z,2624
2018-07-05T04:50:12.100Z,2636
2018-07-05T04:51:12.784Z,2656
2018-07-05T04:52:13.518Z,2676
2018-07-05T04:53:14.205Z,2708
2018-07-05T04:54:14.936Z,2752
2018-07-05T04:55:15.625Z,2788
2018-07-05T04:56:16.354Z,2820
2018-07-05T04:57:17.038Z,2840
2018-07-05T04:58:17.723Z,2856
2018-07-05T04:59:18.409Z,2868
2018-07-05T05:00:19.095Z,2884
2018-07-05T05:01:19.830Z,2900
2018-07-05T05:02:20.561Z,2928
2018-07-05T05:03:21.201Z,2952
2018-07-05T05:04:21.885Z,2984
2018-07-05T05:05:22.620Z,3012
2018-07-05T05:06:23.304Z,3040
2018-07-05T05:07:23.990Z,3072
2018-07-05T05:08:24.676Z,3100
2018-07-05T05:09:25.425Z,3124
2018-07-05T05:10:26.145Z,3144
2018-07-05T05:11:26.833Z,3160
2018-07-05T05:12:27.517Z,3172
2018-07-05T05:13:28.204Z,3180
2018-07-05T05:14:28.889Z,3196
2018-07-05T05:15:29.623Z,3208
2018-07-05T05:16:30.307Z,3224
2018-07-05T05:17:31.090Z,3232
2018-07-05T05:18:31.777Z,3240
2018-07-05T05:19:32.460Z,3244
2018-07-05T05:20:33.146Z,3248
2018-07-05T05:21:33.831Z,3248
2018-07-05T05:22:34.568Z,3248
2018-07-05T05:23:35.253Z,3256
2018-07-05T05:24:35.939Z,3276
2018-07-05T05:25:36.623Z,3300
2018-07-05T05:26:37.357Z,3308
2018-07-05T05:27:38.043Z,3308
2018-07-05T05:28:38.727Z,3312
2018-07-05T05:29:39.463Z,3312
2018-07-05T05:30:40.148Z,3312
2018-07-05T05:31:40.835Z,3324
2018-07-05T05:32:41.520Z,3340
2018-07-05T05:33:42.207Z,3364
2018-07-05T05:34:42.944Z,3400
2018-07-05T05:35:43.633Z,3460
2018-07-05T05:36:44.319Z,3532
2018-07-05T05:37:45.057Z,3576
2018-07-05T05:38:45.795Z,3624
2018-07-05T05:39:46.535Z,3660
2018-07-05T05:40:47.218Z,3672
2018-07-05T05:41:47.903Z,3680
2018-07-05T05:42:48.639Z,3708
2018-07-05T05:43:49.327Z,3760
2018-07-05T05:44:50.011Z,3804
2018-07-05T05:45:50.700Z,3840
2018-07-05T05:46:51.384Z,3876
2018-07-05T05:47:52.119Z,3908
2018-07-05T05:48:52.806Z,3924
2018-07-05T05:49:53.492Z,3952
2018-07-05T05:50:54.228Z,3992
2018-07-05T05:51:54.915Z,4016
2018-07-05T05:52:55.651Z,4024
2018-07-05T05:53:56.337Z,4048
2018-07-05T05:54:57.073Z,4056
2018-07-05T05:55:57.808Z,4080
2018-07-05T05:56:58.503Z,4100
2018-07-05T05:57:59.281Z,4160
2018-07-05T05:58:59.966Z,4236
2018-07-05T06:00:00.656Z,4332
2018-07-05T06:01:01.391Z,4408
2018-07-05T06:02:02.080Z,4488
2018-07-05T06:03:02.766Z,4588
2018-07-05T06:04:03.454Z,4708
2018-07-05T06:05:04.163Z,4832
2018-07-05T06:06:04.879Z,4956
2018-07-05T06:07:05.563Z,5088
2018-07-05T06:08:06.382Z,5216
2018-07-05T06:09:06.989Z,5344
2018-07-05T06:10:07.678Z,5476
2018-07-05T06:11:08.410Z,5636
2018-07-05T06:12:09.097Z,5828
2018-07-05T06:13:09.786Z,7596
2018-07-05T06:14:10.522Z,37952
2018-07-05T06:15:11.258Z,69216
2018-07-05T06:16:11.945Z,79232
2018-07-05T06:17:12.635Z,77696
2018-07-05T06:18:13.321Z,66624
2018-07-05T06:19:14.012Z,57536
2018-07-05T06:20:14.751Z,55424
2018-07-05T06:21:15.447Z,60544
2018-07-05T06:22:16.130Z,71808
2018-07-05T06:23:16.821Z,85696
2018-07-05T06:24:17.562Z,88064
2018-07-05T06:25:18.252Z,87648
2018-07-05T06:26:18.943Z,85344
2018-07-05T06:27:19.636Z,79168
2018-07-05T06:28:20.328Z,78752
2018-07-05T06:29:21.072Z,79552
2018-07-05T06:30:21.764Z,84032
2018-07-05T06:31:22.457Z,81536
2018-07-05T06:32:23.151Z,78592
2018-07-05T06:33:23.846Z,81568
2018-07-05T06:34:24.590Z,81344
2018-07-05T06:35:25.287Z,78272
2018-07-05T06:36:26.031Z,80480
2018-07-05T06:37:26.727Z,79360
2018-07-05T06:38:27.468Z,80576
2018-07-05T06:39:28.216Z,82304
2018-07-05T06:40:28.857Z,79648
2018-07-05T06:41:29.604Z,77888
2018-07-05T06:42:30.299Z,81312
2018-07-05T06:43:30.995Z,78528
2018-07-05T06:44:31.738Z,76416
2018-07-05T06:45:32.483Z,79776
2018-07-05T06:46:33.178Z,81088
2018-07-05T06:47:33.980Z,78336
2018-07-05T06:48:34.569Z,75008
2018-07-05T06:49:35.364Z,76000
2018-07-05T06:50:36.061Z,77472
2018-07-05T06:51:36.797Z,75616
2018-07-05T06:52:37.494Z,74944
2018-07-05T06:53:38.189Z,74208
2018-07-05T06:54:38.886Z,73248
2018-07-05T06:55:39.633Z,75296
2018-07-05T06:56:40.379Z,73280
2018-07-05T06:57:41.074Z,74528
2018-07-05T06:58:41.773Z,76672
2018-07-05T06:59:42.514Z,79776
2018-07-05T07:00:43.208Z,75008
2018-07-05T07:01:43.955Z,73280
2018-07-05T07:02:44.638Z,72160
2018-07-05T07:03:45.324Z,70656
2018-07-05T07:04:46.059Z,69792
2018-07-05T07:05:46.743Z,65632
2018-07-05T07:06:47.428Z,70368
2018-07-05T07:07:48.110Z,68768
2018-07-05T07:08:48.798Z,69920
2018-07-05T07:09:49.577Z,67584
2018-07-05T07:10:50.262Z,69408
2018-07-05T07:11:50.946Z,67360
2018-07-05T07:12:51.634Z,67072
2018-07-05T07:13:52.317Z,71968
2018-07-05T07:14:53.051Z,73216
2018-07-05T07:15:53.736Z,75360
2018-07-05T07:16:54.468Z,77248
2018-07-05T07:17:55.203Z,77280
2018-07-05T07:18:55.938Z,76256
2018-07-05T07:19:56.671Z,76832
2018-07-05T07:20:57.357Z,70944
2018-07-05T07:21:58.045Z,66272
2018-07-05T07:22:58.734Z,68192
2018-07-05T07:23:59.465Z,59136
2018-07-05T07:25:00.154Z,72096
2018-07-05T07:26:00.890Z,74560
2018-07-05T07:27:01.576Z,74688
2018-07-05T07:28:02.263Z,67168
2018-07-05T07:29:02.950Z,62528
2018-07-05T07:30:03.638Z,61440
2018-07-05T07:31:04.374Z,64448
2018-07-05T07:32:05.109Z,68224
2018-07-05T07:33:05.801Z,71552
2018-07-05T07:34:06.536Z,70880
2018-07-05T07:35:07.266Z,72864
2018-07-05T07:36:08.004Z,73248
2018-07-05T07:37:08.738Z,73120
2018-07-05T07:38:09.425Z,71648
2018-07-05T07:39:10.158Z,67648
2018-07-05T07:40:10.847Z,68480
2018-07-05T07:41:11.531Z,67520
2018-07-05T07:42:12.218Z,65824
2018-07-05T07:43:12.903Z,66144
2018-07-05T07:44:13.588Z,66976
2018-07-05T07:45:14.326Z,68896
2018-07-05T07:46:15.013Z,67872
2018-07-05T07:47:15.747Z,65728
2018-07-05T07:48:16.434Z,65792
2018-07-05T07:49:17.167Z,64288
2018-07-05T07:50:17.899Z,64800
2018-07-05T07:51:18.646Z,63904
2018-07-05T07:52:19.321Z,62336
2018-07-05T07:53:20.007Z,64064
2018-07-05T07:54:20.692Z,62912
2018-07-05T07:55:21.379Z,64032
2018-07-05T07:56:22.064Z,65760
2018-07-05T07:57:22.799Z,65376
2018-07-05T07:58:23.485Z,64736
2018-07-05T07:59:24.219Z,62656
2018-07-05T08:00:24.905Z,62880
2018-07-05T08:01:25.638Z,64032
2018-07-05T08:02:26.324Z,63264
2018-07-05T08:03:27.008Z,61120
2018-07-05T08:04:27.693Z,59648
2018-07-05T08:05:28.377Z,58720
2018-07-05T08:06:29.111Z,60736
2018-07-05T08:07:29.795Z,59232
2018-07-05T08:08:30.481Z,55008
2018-07-05T08:09:31.165Z,59424
2018-07-05T08:10:31.852Z,61248
2018-07-05T08:11:32.635Z,54784
2018-07-05T08:12:33.320Z,50912
2018-07-05T08:13:34.003Z,50304
2018-07-05T08:14:34.686Z,44672
2018-07-05T08:15:35.421Z,36064
2018-07-05T08:16:36.107Z,18816
2018-07-05T08:17:36.793Z,12596
2018-07-05T08:18:37.525Z,11744
2018-07-05T08:19:38.211Z,11192
2018-07-05T08:20:38.942Z,10732
2018-07-05T08:21:39.628Z,10328
2018-07-05T08:22:40.309Z,9940
2018-07-05T08:23:41.042Z,9636
2018-07-05T08:24:41.728Z,9332
2018-07-05T08:25:42.407Z,9108
2018-07-05T08:26:43.089Z,8924
2018-07-05T08:27:43.823Z,8788
2018-07-05T08:28:44.506Z,8508
2018-07-05T08:29:45.237Z,7608
2018-07-05T08:30:45.921Z,8252
2018-07-05T08:31:46.604Z,8080
2018-07-05T08:32:47.336Z,7952
2018-07-05T08:33:48.019Z,7812
2018-07-05T08:34:48.701Z,7732
2018-07-05T08:35:49.386Z,7616
2018-07-05T08:36:50.118Z,7544
2018-07-05T08:37:50.817Z,7432
2018-07-05T08:38:51.524Z,7392
2018-07-05T08:39:52.259Z,7204
2018-07-05T08:40:52.943Z,7116
2018-07-05T08:41:53.625Z,7196
2018-07-05T08:42:54.310Z,7128
2018-07-05T08:43:54.991Z,7172
2018-07-05T08:44:55.789Z,7208
2018-07-05T08:45:56.406Z,7160
2018-07-05T08:46:57.087Z,7068
2018-07-05T08:47:57.771Z,7044
2018-07-05T08:48:58.460Z,7072
2018-07-05T08:49:59.234Z,6996
2018-07-05T08:50:59.919Z,6908
2018-07-05T08:52:00.602Z,6808
2018-07-05T08:53:01.287Z,6772
2018-07-05T08:54:01.970Z,6740
2018-07-05T08:55:02.705Z,6764
2018-07-05T08:56:03.439Z,6712
2018-07-05T08:57:04.118Z,6628
2018-07-05T08:58:04.803Z,6520
2018-07-05T08:59:05.535Z,6412
2018-07-05T09:00:06.217Z,6376
2018-07-05T09:01:06.903Z,6308
2018-07-05T09:02:07.586Z,6208
2018-07-05T09:03:08.269Z,6120
2018-07-05T09:04:08.952Z,6040
2018-07-05T09:05:09.703Z,5948
2018-07-05T09:06:10.369Z,5840
2018-07-05T09:07:11.054Z,5740
2018-07-05T09:08:11.737Z,5608
2018-07-05T09:09:12.470Z,5528
2018-07-05T09:10:13.153Z,5492
2018-07-05T09:11:13.836Z,5376
2018-07-05T09:12:14.520Z,5284
2018-07-05T09:13:15.207Z,5264
2018-07-05T09:14:15.938Z,5208
2018-07-05T09:15:16.622Z,5120
2018-07-05T09:16:17.303Z,5072
2018-07-05T09:17:18.054Z,5016
2018-07-05T09:18:18.797Z,4940
2018-07-05T09:19:19.403Z,4916
2018-07-05T09:20:20.135Z,4820
2018-07-05T09:21:20.867Z,4796
2018-07-05T09:22:21.602Z,4788
2018-07-05T09:23:22.358Z,4804
2018-07-05T09:24:23.019Z,4768
2018-07-05T09:25:23.702Z,4756
2018-07-05T09:26:24.483Z,4744
2018-07-05T09:27:25.215Z,4744
2018-07-05T09:28:25.895Z,4764
2018-07-05T09:29:26.580Z,4748
2018-07-05T09:30:27.308Z,4700
2018-07-05T09:31:28.039Z,4664
2018-07-05T09:32:28.769Z,4640
2018-07-05T09:33:29.502Z,4584
2018-07-05T09:34:30.187Z,4588
2018-07-05T09:35:30.871Z,4580
2018-07-05T09:36:31.553Z,4596
2018-07-05T09:37:32.297Z,4580
2018-07-05T09:38:32.969Z,4540
2018-07-05T09:39:33.652Z,4508
2018-07-05T09:40:34.334Z,4544
2018-07-05T09:41:35.019Z,4516
2018-07-05T09:42:35.803Z,4524
2018-07-05T09:43:36.481Z,4540
2018-07-05T09:44:37.164Z,4420
2018-07-05T09:45:37.849Z,4396
2018-07-05T09:46:38.528Z,4316
2018-07-05T09:47:39.262Z,4288
2018-07-05T09:48:39.944Z,4296
2018-07-05T09:49:40.628Z,4308
2018-07-05T09:50:41.308Z,4332
2018-07-05T09:51:41.989Z,4356
2018-07-05T09:52:42.778Z,4380
2018-07-05T09:53:43.399Z,4368
2018-07-05T09:54:44.132Z,4416
2018-07-05T09:55:44.812Z,4448
2018-07-05T09:56:45.544Z,4460
2018-07-05T09:57:46.227Z,4520
2018-07-05T09:58:46.910Z,4496
2018-07-05T09:59:47.591Z,4472
2018-07-05T10:00:48.273Z,4464
2018-07-05T10:01:49.006Z,4472
2018-07-05T10:02:49.790Z,4476
2018-07-05T10:03:50.452Z,4476
2018-07-05T10:04:51.098Z,4464
2018-07-05T10:05:51.780Z,4452
2018-07-05T10:06:52.512Z,4460
2018-07-05T10:07:53.247Z,4452
2018-07-05T10:08:53.924Z,4464
2018-07-05T10:09:54.659Z,4540
2018-07-05T10:10:55.341Z,4672
2018-07-05T10:11:56.075Z,4800
2018-07-05T10:12:56.844Z,4916
2018-07-05T10:13:57.592Z,5040
2018-07-05T10:14:58.215Z,5080
2018-07-05T10:15:58.897Z,5088
2018-07-05T10:16:59.635Z,5076
2018-07-05T10:18:00.361Z,5072
2018-07-05T10:19:01.050Z,5108
2018-07-05T10:20:01.729Z,5292
2018-07-05T10:21:02.411Z,5496
2018-07-05T10:22:03.094Z,5500
2018-07-05T10:23:03.825Z,5488
2018-07-05T10:24:04.511Z,5432
2018-07-05T10:25:05.192Z,5456
2018-07-05T10:26:05.874Z,5528
2018-07-05T10:27:06.632Z,5624
2018-07-05T10:28:07.243Z,5768
2018-07-05T10:29:07.971Z,5916
2018-07-05T10:30:08.656Z,6080
2018-07-05T10:31:09.338Z,6276
2018-07-05T10:32:10.020Z,6408
2018-07-05T10:33:10.704Z,6560
2018-07-05T10:34:11.437Z,6668
2018-07-05T10:35:12.167Z,6732
2018-07-05T10:36:12.849Z,7008
2018-07-05T10:37:13.531Z,6972
2018-07-05T10:38:14.213Z,7156
2018-07-05T10:39:14.946Z,7272
2018-07-05T10:40:15.726Z,7772
2018-07-05T10:41:16.407Z,8284
2018-07-05T10:42:17.089Z,8532
2018-07-05T10:43:17.771Z,8616
2018-07-05T10:44:18.453Z,8612
2018-07-05T10:45:19.184Z,8472
2018-07-05T10:46:19.868Z,8284
2018-07-05T10:47:20.550Z,8148
2018-07-05T10:48:21.232Z,8136
2018-07-05T10:49:21.916Z,8132
2018-07-05T10:50:22.649Z,7668
2018-07-05T10:51:23.331Z,7452
2018-07-05T10:52:24.015Z,7548
2018-07-05T10:53:24.698Z,7892
2018-07-05T10:54:25.382Z,8188
2018-07-05T10:55:26.149Z,8328
2018-07-05T10:56:26.797Z,8376
2018-07-05T10:57:27.531Z,8332
2018-07-05T10:58:28.212Z,8648
2018-07-05T10:59:28.898Z,8496
2018-07-05T11:00:29.677Z,8428
2018-07-05T11:01:30.416Z,8524
2018-07-05T11:02:31.091Z,8520
2018-07-05T11:03:31.774Z,8724
2018-07-05T11:04:32.457Z,8848
2018-07-05T11:05:33.139Z,8704
2018-07-05T11:06:33.871Z,8408
2018-07-05T11:07:34.555Z,8164
2018-07-05T11:08:35.236Z,7864
2018-07-05T11:09:35.970Z,7780
2018-07-05T11:10:36.652Z,7912
2018-07-05T11:11:37.333Z,7780
2018-07-05T11:12:38.016Z,7320
2018-07-05T11:13:38.699Z,6800
2018-07-05T11:14:39.400Z,6392
2018-07-05T11:15:40.063Z,6164
2018-07-05T11:16:40.809Z,6324
2018-07-05T11:17:41.477Z,6676
2018-07-05T11:18:42.159Z,6980
2018-07-05T11:19:42.842Z,7136
2018-07-05T11:20:43.528Z,7300
2018-07-05T11:21:44.208Z,7476
2018-07-05T11:22:44.944Z,7684
2018-07-05T11:23:45.623Z,7864
2018-07-05T11:24:46.313Z,8184
2018-07-05T11:25:46.993Z,8544
2018-07-05T11:26:47.773Z,8736
2018-07-05T11:27:48.455Z,8980
2018-07-05T11:28:49.137Z,8896
2018-07-05T11:29:49.821Z,8856
2018-07-05T11:30:50.599Z,8912
2018-07-05T11:31:51.282Z,8716
2018-07-05T11:32:52.014Z,8348
2018-07-05T11:33:52.743Z,8128
2018-07-05T11:34:53.425Z,7908
2018-07-05T11:35:54.156Z,7724
2018-07-05T11:36:54.838Z,7564
2018-07-05T11:37:55.520Z,7552
2018-07-05T11:38:56.251Z,7852
2018-07-05T11:39:56.935Z,8040
2018-07-05T11:40:57.616Z,8140
2018-07-05T11:41:58.302Z,8308
2018-07-05T11:42:59.033Z,8556
2018-07-05T11:43:59.764Z,8776
2018-07-05T11:45:00.446Z,8908
2018-07-05T11:46:01.228Z,8864
2018-07-05T11:47:01.911Z,8756
2018-07-05T11:48:02.594Z,8576
2018-07-05T11:49:03.278Z,8300
2018-07-05T11:51:19.526Z,7848
2018-07-05T11:52:20.333Z,7540
2018-07-05T11:53:20.941Z,7300
2018-07-05T11:54:21.622Z,7348
2018-07-05T11:55:22.303Z,7588
2018-07-05T11:56:23.086Z,7792
2018-07-05T11:57:23.768Z,7884
2018-07-05T11:58:24.452Z,7732
2018-07-05T11:59:25.134Z,7712
2018-07-05T12:00:25.815Z,7800
2018-07-05T12:01:26.549Z,7860
2018-07-05T12:02:27.231Z,8056
2018-07-05T12:03:28.014Z,7908
2018-07-05T12:04:28.694Z,7620
2018-07-05T12:05:29.378Z,7520
2018-07-05T12:06:30.060Z,7468
2018-07-05T12:07:30.792Z,7324
2018-07-05T12:08:31.522Z,7260
2018-07-05T12:09:32.204Z,6944
2018-07-05T12:10:32.887Z,6780
2018-07-05T12:11:33.571Z,6492
2018-07-05T12:12:34.355Z,6392
2018-07-05T12:13:35.035Z,6100
2018-07-05T12:14:35.714Z,5640
2018-07-05T12:15:36.398Z,5372
2018-07-05T12:16:37.082Z,5644
2018-07-05T12:17:37.814Z,5748
2018-07-05T12:18:38.496Z,5884
2018-07-05T12:19:39.178Z,5916
2018-07-05T12:20:39.857Z,6176
2018-07-05T12:21:40.539Z,6536
2018-07-05T12:22:41.272Z,6720
2018-07-05T12:23:41.955Z,7112
2018-07-05T12:24:42.638Z,7152
2018-07-05T12:25:43.370Z,7152
2018-07-05T12:26:44.054Z,7488
2018-07-05T12:27:44.736Z,8056
2018-07-05T12:28:45.420Z,8312
2018-07-05T12:29:46.149Z,8408
2018-07-05T12:30:46.880Z,8344
2018-07-05T12:31:47.613Z,8260
2018-07-05T12:32:48.295Z,8352
2018-07-05T12:33:48.976Z,8428
2018-07-05T12:34:49.658Z,8360
2018-07-05T12:35:50.389Z,8112
2018-07-05T12:36:51.074Z,8072
2018-07-05T12:37:51.757Z,7976
2018-07-05T12:38:52.490Z,7976
2018-07-05T12:39:53.220Z,8044
2018-07-05T12:40:53.901Z,8148
2018-07-05T12:41:54.635Z,8080
2018-07-05T12:42:55.315Z,7936
2018-07-05T12:43:55.997Z,7852
2018-07-05T12:44:56.679Z,7884
2018-07-05T12:45:57.359Z,7928
2018-07-05T12:46:58.093Z,7944
2018-07-05T12:47:58.824Z,7612
2018-07-05T12:48:59.507Z,7672
2018-07-05T12:50:00.241Z,7496
2018-07-05T12:51:00.973Z,7500
2018-07-05T12:52:01.657Z,7796
2018-07-05T12:53:02.339Z,8256
2018-07-05T12:54:03.023Z,8744
2018-07-05T12:55:03.703Z,9080
2018-07-05T12:56:04.433Z,9200
2018-07-05T12:57:05.117Z,9256
2018-07-05T12:58:05.804Z,9352
2018-07-05T12:59:06.534Z,9904
2018-07-05T13:00:07.216Z,10600
2018-07-05T13:01:07.950Z,10768
2018-07-05T13:02:08.634Z,11040
2018-07-05T13:03:09.317Z,10996
2018-07-05T13:04:10.062Z,11152
2018-07-05T13:05:10.684Z,11092
2018-07-05T13:06:11.415Z,10904
2018-07-05T13:07:12.101Z,10596
2018-07-05T13:08:12.783Z,10548
2018-07-05T13:09:13.519Z,10356
2018-07-05T13:10:14.202Z,10324
2018-07-05T13:11:14.933Z,10456
2018-07-05T13:12:15.617Z,10464
2018-07-05T13:13:16.351Z,10536
2018-07-05T13:14:17.079Z,10304
2018-07-05T13:15:17.764Z,10300
2018-07-05T13:16:18.448Z,10048
2018-07-05T13:17:19.180Z,9892
2018-07-05T13:18:19.927Z,9608
2018-07-05T13:19:20.583Z,9508
2018-07-05T13:20:21.315Z,9460
2018-07-05T13:21:22.045Z,9372
2018-07-05T13:22:22.727Z,9244
2018-07-05T13:23:23.408Z,9276
2018-07-05T13:24:24.128Z,9256
2018-07-05T13:25:24.772Z,9324
2018-07-05T13:26:25.507Z,9452
2018-07-05T13:27:26.138Z,9592
2018-07-05T13:28:26.871Z,9740
2018-07-05T13:29:27.554Z,9840
2018-07-05T13:30:28.236Z,9952
2018-07-05T13:31:28.919Z,9952
2018-07-05T13:32:29.650Z,9632
2018-07-05T13:33:30.429Z,9748
2018-07-05T13:34:31.107Z,9444
2018-07-05T13:35:31.788Z,9176
2018-07-05T13:36:32.468Z,8972
2018-07-05T13:37:33.149Z,8688
2018-07-05T13:38:33.833Z,8332
2018-07-05T13:39:34.560Z,8108
2018-07-05T13:40:35.197Z,7772
2018-07-05T13:41:35.977Z,7684
2018-07-05T13:42:36.661Z,7568
2018-07-05T13:43:37.343Z,7300